Estació municipal de Les Masies de Roda (Osona, Ter)

Consulta les dades en temps real de l'estació municipal de Les Masies de Roda





Hora UTC 18:55
Temperatura 15.8 ºC
Sòl 15 cm 14.9 ºC
Humitat 63.8 %
Pressió 1018.4 hPa
Pluja 0.0 mm
Velocitat vent 3.7 km/h
Direcció vent SW
Radiació solar 0.6 W/m²

Dades diàries 2026-05-02



Hora UTC (hivern +1h; estiu +2h)
Temperatura (ºC) Humitat (%) Pressió (hPa) Velocitat vent (km/h) Precipitació (mm) Radiació solar (W/m²)
Hora UTC Aire Sòl 15 cm Humitat Pressió Vel. Dir. Vel. Max Dir. Intent. màx 5 min. Rad. Sol.
00:05 10.3 9.7 92.0 1023.6 0.0 NNE 0.0 NW 0.0 0.1
00:10 10.5 9.8 90.1 1023.5 0.7 NNE 2.8 NNE 0.0 0.1
00:15 10.8 9.9 88.7 1023.4 2.0 NNE 3.9 NE 0.0 0.1
00:20 10.9 10.1 88.7 1023.4 2.0 NNE 4.2 N 0.0 0.1
00:25 11.1 10.3 88.8 1023.3 3.3 NE 5.3 NNE 0.0 0.1
00:30 11.2 10.5 89.2 1023.3 0.9 SSW 3.5 SW 0.0 0.1
00:35 11.2 10.6 89.4 1023.3 0.6 NNW 2.1 WNW 0.0 0.1
00:40 11.1 10.6 89.5 1023.3 0.1 N 1.8 N 0.0 0.1
00:45 11.2 10.7 90.1 1023.2 0.6 ENE 3.2 ENE 0.0 0.1
00:50 11.2 10.8 86.0 1023.2 1.7 ENE 3.5 ENE 0.0 0.1
00:55 11.4 10.9 86.3 1023.3 0.0 NW 1.4 WNW 0.0 0.1
01:00 11.5 10.9 89.0 1023.1 1.1 NW 2.8 NW 0.0 0.1
01:05 11.4 10.9 90.5 1023.1 2.1 WNW 3.2 WNW 0.0 0.1
01:10 11.4 10.9 90.6 1023.1 0.2 W 2.1 W 0.0 0.1
01:15 11.3 11.0 90.1 1023.1 1.6 SW 2.8 SW 0.0 0.1
01:20 11.3 11.0 89.8 1023.0 0.0 NNE 0.0 SW 0.0 0.1
01:25 11.3 11.0 88.2 1022.9 0.0 NNE 0.0 SW 0.0 0.1
01:30 11.4 11.1 87.7 1022.9 0.0 NNE 0.0 SW 0.0 0.1
01:35 11.5 11.1 86.5 1022.8 1.2 NE 2.8 SW 0.0 0.1
01:40 11.7 11.2 86.1 1022.8 0.9 NE 2.8 NE 0.0 0.1
01:45 11.7 11.2 86.0 1022.7 0.3 NNE 1.8 NNE 0.0 0.1
01:50 11.7 11.2 86.3 1022.8 0.1 NE 1.4 NNE 0.0 0.1
01:55 11.7 11.2 86.6 1022.6 0.0 NNE 0.0 ENE 0.0 0.1
02:00 11.7 11.2 88.1 1022.7 0.8 SW 4.2 SSW 0.0 0.1
02:05 11.7 11.2 88.6 1022.5 2.1 WSW 4.6 W 0.0 0.1
02:10 11.6 11.1 88.5 1022.6 3.4 WSW 5.7 WSW 0.0 0.1
02:15 11.5 10.9 88.4 1022.4 3.0 WSW 3.9 WSW 0.0 0.1
02:20 11.4 10.8 88.2 1022.5 2.7 SSW 4.6 SSW 0.0 0.1
02:25 11.4 10.8 87.8 1022.4 3.2 SW 5.0 SSW 0.0 0.1
02:30 11.4 10.9 88.7 1022.5 3.2 WSW 5.0 W 0.0 0.1
02:35 11.4 10.9 88.3 1022.4 2.2 WSW 3.5 WSW 0.0 0.1
02:40 11.4 10.9 88.4 1022.5 2.6 SSW 5.3 SSW 0.0 0.1
02:45 11.4 11.0 87.7 1022.5 3.4 SSW 5.3 SSW 0.0 0.1
02:50 11.5 11.0 87.5 1022.5 1.7 WSW 3.2 SSW 0.0 0.1
02:55 11.6 11.1 87.5 1022.5 1.7 SSE 3.9 SE 0.0 0.1
03:00 11.7 11.1 85.7 1022.3 0.8 SE 3.5 SE 0.0 0.1
03:05 11.8 11.2 84.8 1022.4 0.7 SSE 2.8 SSE 0.0 0.1
03:10 11.9 11.2 85.0 1022.3 1.9 S 3.2 SE 0.0 0.1
03:15 11.8 11.2 87.8 1022.4 0.9 NW 2.5 NW 0.0 0.1
03:20 11.7 11.2 87.4 1022.3 0.0 NNE 0.0 NW 0.0 0.1
03:25 11.8 11.2 87.7 1022.4 0.0 NNE 0.0 NW 0.0 0.1
03:30 11.8 11.3 86.4 1022.2 1.6 ENE 4.6 ENE 0.0 0.1
03:35 12.0 11.3 84.2 1022.2 2.3 E 4.2 E 0.0 0.1
03:40 12.1 11.4 83.3 1022.1 2.3 E 3.9 ENE 0.0 0.1
03:45 12.1 11.4 82.1 1022.2 2.5 ESE 4.2 SE 0.0 0.1
03:50 12.2 11.5 82.5 1022.1 1.0 SW 3.9 WSW 0.0 0.1
03:55 12.1 11.5 86.5 1022.2 1.6 W 3.2 W 0.0 0.1
04:00 11.9 11.5 86.9 1022.1 0.6 N 2.1 NNW 0.0 0.1
04:05 11.9 11.4 86.8 1022.1 0.2 NW 2.5 NW 0.0 0.1
04:10 12.0 11.4 87.6 1022.0 2.5 NW 3.5 NW 0.0 0.1
04:15 12.0 11.4 89.2 1022.0 2.7 NW 3.9 NW 0.0 0.1
04:20 11.9 11.4 90.3 1022.0 3.5 WNW 4.2 WNW 0.0 0.1
04:25 11.8 11.4 89.4 1022.0 2.6 NW 4.6 NW 0.0 0.1
04:30 11.9 11.4 89.9 1022.1 2.0 WNW 3.2 WNW 0.0 0.2
04:35 11.8 11.4 88.4 1022.0 0.5 WNW 2.8 WNW 0.0 0.6
04:40 11.8 11.4 87.6 1022.1 0.0 NNE 0.0 WNW 0.0 0.6
04:45 11.9 11.4 87.7 1021.9 1.2 NNE 2.5 NNE 0.0 2.5
04:50 12.0 11.4 87.1 1022.1 0.0 N 1.1 N 0.0 2.0
04:55 12.0 11.5 86.6 1022.0 2.1 NNE 3.2 NNE 0.0 2.6
05:00 12.1 11.5 87.0 1022.2 1.2 NE 2.8 NE 0.0 3.0
05:05 12.1 11.6 86.9 1022.0 0.7 NNE 2.8 NNE 0.0 6.5
05:10 12.1 11.6 88.5 1022.2 0.1 WNW 2.1 WNW 0.0 5.4
05:15 12.1 11.6 89.7 1022.0 0.9 WNW 2.5 WNW 0.0 4.8
05:20 12.1 11.6 89.2 1022.2 0.6 NE 2.8 NNE 0.0 5.2
05:25 12.0 11.6 87.5 1022.1 0.3 ESE 2.1 ESE 0.0 5.1
05:30 12.0 11.6 85.6 1022.3 0.0 NNE 0.0 E 0.0 5.2
05:35 12.1 11.6 87.3 1022.1 1.2 WNW 2.1 WNW 0.0 5.4
05:40 12.2 11.6 90.2 1022.3 0.6 WNW 2.1 WNW 0.0 9.5
05:45 12.2 11.7 90.5 1022.2 1.5 WNW 2.5 WNW 0.0 15.0
05:50 12.1 11.7 90.3 1022.3 0.2 WNW 1.8 WNW 0.0 22.0
05:55 12.1 11.9 90.4 1022.3 1.2 WSW 3.2 WSW 0.0 34.4
06:00 12.2 12.0 90.6 1022.4 3.1 W 3.9 W 0.0 27.1
06:05 12.3 12.1 90.7 1022.4 2.5 WSW 3.9 W 0.0 16.4
06:10 12.2 12.2 89.6 1022.5 2.5 SW 3.5 WSW 0.0 10.3
06:15 12.2 12.1 87.5 1022.5 2.1 WSW 4.2 WSW 0.0 9.2
06:20 12.2 12.1 87.2 1022.5 0.2 WSW 2.5 WSW 0.0 13.4
06:25 12.2 12.1 85.2 1022.5 0.0 NNE 0.0 WSW 0.0 21.7
06:30 12.3 12.2 84.1 1022.4 0.2 ENE 1.8 ENE 0.0 34.8
06:35 12.4 12.4 84.3 1022.4 0.3 NE 2.1 NNE 0.0 43.3
06:40 12.5 12.5 84.3 1022.4 0.8 NNE 2.5 N 0.0 44.8
06:45 12.6 12.7 84.8 1022.5 0.2 N 2.1 N 0.0 39.2
06:50 12.7 12.8 85.4 1022.5 0.2 NNE 2.5 NNE 0.0 43.1
06:55 12.7 12.9 83.0 1022.5 0.5 NNE 2.1 NNE 0.0 45.4
07:00 12.8 13.0 82.8 1022.5 1.9 NNE 3.2 NNE 0.0 49.1
07:05 12.8 13.0 82.8 1022.5 2.1 NNE 3.2 NNE 0.0 57.7
07:10 12.8 13.1 82.8 1022.5 1.9 NNE 2.8 NE 0.0 65.5
07:15 13.0 13.3 82.6 1022.6 0.0 NNE 1.4 NNE 0.0 62.8
07:20 13.0 13.4 82.4 1022.5 0.9 SW 4.2 SSW 0.0 62.6
07:25 13.1 13.5 82.8 1022.6 3.4 SSW 5.3 SW 0.0 66.2
07:30 13.2 13.7 82.2 1022.4 1.2 SSW 4.2 S 0.0 67.1
07:35 13.2 13.8 80.7 1022.5 1.0 SSE 3.2 SSE 0.0 73.5
07:40 13.2 13.9 79.2 1022.4 0.0 NNE 0.0 SSE 0.0 96.8
07:45 13.4 14.2 81.4 1022.6 1.9 W 4.6 WSW 0.0 93.5
07:50 13.5 14.3 82.4 1022.5 3.0 W 4.2 W 0.0 69.6
07:55 13.5 14.3 82.8 1022.6 3.1 W 4.2 W 0.0 59.7
08:00 13.5 14.3 83.0 1022.6 3.6 W 4.2 W 0.0 64.9
08:05 13.4 14.2 81.6 1022.6 2.8 NW 3.5 NW 0.0 70.4
08:10 13.4 14.2 82.3 1022.6 3.2 NW 5.7 NW 0.0 73.4
08:15 13.4 14.1 81.6 1022.6 3.3 NNW 5.0 N 0.0 69.5
08:20 13.4 14.1 81.9 1022.7 2.0 NNW 3.9 NNW 0.0 63.3
08:25 13.4 14.0 81.0 1022.6 3.1 NNW 4.6 N 0.0 75.4
08:30 13.4 14.0 80.5 1022.7 2.8 NNW 5.0 N 0.0 81.6
08:35 13.6 14.1 81.5 1022.6 2.0 NNW 4.6 N 0.0 84.0
08:40 13.7 14.3 81.5 1022.8 1.7 N 5.0 NNW 0.0 89.2
08:45 13.7 14.5 81.1 1022.6 2.9 N 5.3 NNW 0.0 99.1
08:50 13.7 14.6 81.1 1022.7 3.3 NNE 5.0 N 0.0 120.9
08:55 13.8 14.9 81.4 1022.7 3.2 NNE 5.7 NNE 0.0 133.4
09:00 13.9 15.2 81.7 1022.6 2.9 N 5.7 NE 0.0 149.2
09:05 14.0 15.4 79.5 1022.7 4.6 N 6.7 NNW 0.0 139.1
09:10 14.0 15.3 78.9 1022.7 3.8 N 6.7 N 0.0 116.8
09:15 13.9 15.2 80.1 1022.7 2.5 N 5.0 NNW 0.0 100.7
09:20 14.0 15.1 80.4 1022.8 2.0 NNE 5.3 NNE 0.0 80.2
09:25 14.1 14.9 80.6 1022.8 3.2 NW 4.6 WNW 0.0 76.4
09:30 14.0 14.6 80.9 1022.8 2.7 NNE 4.2 NNE 0.0 101.3
09:35 14.0 14.3 82.1 1022.8 3.3 NNE 5.7 NNE 0.0 117.1
09:40 14.0 14.2 82.2 1022.7 3.4 NNE 5.7 NE 0.0 121.4
09:45 14.0 14.3 81.0 1022.7 3.7 NNE 6.0 N 0.0 112.7
09:50 14.1 14.4 81.3 1022.7 3.4 NNE 7.1 NE 0.0 107.4
09:55 14.2 14.6 80.5 1022.7 3.2 NNE 5.0 NE 0.0 137.4
10:00 14.3 15.1 79.4 1022.6 4.5 NNE 6.7 NNE 0.0 260.4
10:05 14.6 16.2 78.8 1022.5 4.6 N 7.8 NNW 0.0 389.2
10:10 14.8 17.5 77.3 1022.5 5.2 N 10.3 NNW 0.0 388.1
10:15 15.2 18.2 75.3 1022.5 5.4 N 8.8 N 0.0 316.6
10:20 15.2 18.4 72.8 1022.4 5.4 NNW 9.9 NNW 0.0 381.6
10:25 15.5 19.0 72.6 1022.4 4.4 N 9.2 NE 0.0 487.8
10:30 15.9 19.9 70.4 1022.4 5.2 N 8.5 NNE 0.0 453.5
10:35 15.8 20.0 71.0 1022.4 4.9 N 11.0 NW 0.0 337.6
10:40 15.7 19.6 72.7 1022.4 6.0 NW 11.0 NW 0.0 284.6
10:45 15.7 19.2 73.6 1022.4 6.3 NW 10.6 NW 0.0 242.7
10:50 15.8 18.9 73.2 1022.4 6.9 NW 9.9 NW 0.0 249.3
10:55 15.8 18.6 72.5 1022.4 5.9 NNW 9.9 NNW 0.0 203.1
11:00 15.7 18.2 70.9 1022.3 5.9 NNW 9.2 NNW 0.0 223.5
11:05 15.6 18.0 71.8 1022.2 5.9 NNW 9.9 NW 0.0 274.4
11:10 15.7 18.1 69.8 1022.1 5.9 N 10.6 N 0.0 348.6
11:15 15.9 18.6 68.8 1021.9 5.4 N 11.7 NNW 0.0 419.5
11:20 16.1 19.3 64.3 1021.9 6.7 NNE 12.0 NNE 0.0 427.2
11:25 16.2 19.9 64.1 1021.8 5.9 NNE 9.2 NE 0.0 447.6
11:30 16.4 20.4 66.0 1021.8 4.3 N 9.5 NNW 0.0 477.3
11:35 16.6 20.7 61.6 1021.7 6.1 N 10.3 NNW 0.0 488.3
11:40 16.6 20.9 61.4 1021.6 5.8 N 8.5 NNW 0.0 486.8
11:45 16.6 21.0 63.2 1021.5 5.6 NNW 8.8 NNW 0.0 478.0
11:50 16.8 21.3 62.0 1021.6 2.5 N 6.7 NNW 0.0 478.2
11:55 17.1 22.0 63.7 1021.6 5.6 NNW 10.3 NNW 0.0 565.5
12:00 17.4 22.7 63.2 1021.5 5.7 NNW 9.2 NNW 0.0 738.1
12:05 17.6 23.8 61.1 1021.4 5.9 NNW 9.2 N 0.0 795.4
12:10 17.4 24.4 63.0 1021.3 4.0 WSW 9.5 NNW 0.0 781.1
12:15 17.9 24.8 61.8 1021.3 7.0 NW 12.0 NNW 0.0 623.6
12:20 17.6 24.3 59.7 1021.3 7.4 NW 12.0 NNW 0.0 727.7
12:25 17.9 24.5 58.1 1021.2 3.6 N 8.1 N 0.0 848.0
12:30 18.4 25.5 59.8 1021.2 6.6 NW 13.8 WNW 0.0 919.0
12:35 18.6 26.3 56.3 1021.2 4.8 N 11.3 NNE 0.0 815.0
12:40 18.6 26.5 56.8 1021.1 4.1 NNE 7.4 NNE 0.0 941.0
12:45 19.0 27.3 54.0 1021.0 6.5 NNE 12.7 NNE 0.0 948.0
12:50 19.1 27.9 54.6 1021.0 6.1 NW 15.9 WNW 0.0 998.0
12:55 19.1 28.5 53.6 1020.9 8.0 NNW 13.8 NNW 0.0 860.0
13:00 19.1 27.6 57.1 1020.9 7.3 WNW 13.8 WSW 0.0 552.5
13:05 19.3 27.2 56.8 1020.9 6.5 W 12.7 WNW 0.0 697.7
13:10 19.4 27.4 55.8 1020.9 6.3 W 11.0 W 0.0 511.6
13:15 19.3 27.3 56.7 1020.8 5.7 W 10.6 W 0.0 660.6
13:20 19.5 27.6 55.3 1020.8 5.2 NW 9.9 WNW 0.0 721.6
13:25 19.1 27.3 53.8 1020.6 4.5 NNE 8.1 NNE 0.0 777.3
13:30 19.1 27.3 51.7 1020.6 6.6 NNE 11.3 NNE 0.0 555.7
13:35 19.0 26.8 52.8 1020.5 5.9 NNE 10.6 NNE 0.0 572.5
13:40 19.1 26.1 53.1 1020.4 6.3 N 11.7 N 0.0 417.2
13:45 19.2 24.7 54.1 1020.3 4.1 WNW 8.5 W 0.0 391.2
13:50 19.3 24.2 58.0 1020.3 4.8 WNW 8.1 WNW 0.0 322.8
13:55 19.4 23.8 52.7 1020.3 3.2 NW 7.4 WNW 0.0 256.5
14:00 19.2 23.3 53.4 1020.2 2.2 NNW 5.0 NNW 0.0 203.7
14:05 19.2 22.6 53.2 1020.1 6.0 NNW 12.4 NW 0.0 238.3
14:10 19.1 22.0 56.2 1020.1 6.2 WNW 9.9 NW 0.0 264.6
14:15 19.2 21.9 56.6 1020.0 5.2 WSW 9.5 WSW 0.0 202.8
14:20 19.1 21.8 56.0 1020.0 6.8 NW 14.1 NW 0.0 148.6
14:25 18.5 20.9 56.6 1019.9 8.5 NNW 15.5 NNW 0.0 154.2
14:30 18.3 20.0 57.1 1019.8 9.0 NW 14.1 NNW 0.0 238.0
14:35 18.3 19.9 57.6 1019.7 9.6 NW 15.2 NW 0.0 241.3
14:40 18.2 19.8 56.8 1019.6 9.6 NNW 15.2 N 0.0 204.4
14:45 18.2 19.7 58.1 1019.5 8.0 NW 13.1 WNW 0.0 269.0
14:50 18.3 20.0 58.3 1019.5 6.8 NW 10.3 NW 0.0 251.1
14:55 18.4 20.1 56.6 1019.5 6.0 NNW 10.6 NNW 0.0 203.2
15:00 18.4 20.0 57.2 1019.5 5.1 NW 7.4 NW 0.0 174.3
15:05 18.4 19.9 59.3 1019.5 5.3 NW 7.1 NW 0.0 156.2
15:10 18.3 19.7 59.8 1019.5 5.5 NW 8.5 NW 0.0 140.5
15:15 18.3 19.6 59.7 1019.4 6.6 NW 14.1 NNW 0.0 243.0
15:20 18.5 19.9 57.8 1019.3 7.7 NNW 13.4 NNW 0.0 235.1
15:25 18.5 20.0 57.4 1019.2 6.4 NNW 10.6 NNW 0.0 209.9
15:30 18.5 20.1 59.7 1019.2 6.1 NNW 9.2 N 0.0 273.2
15:35 18.7 20.6 54.8 1019.1 3.8 N 8.5 NNE 0.0 373.5
15:40 19.3 21.8 54.1 1019.0 3.1 WSW 5.0 SSW 0.0 335.0
15:45 19.4 22.5 50.1 1018.9 2.7 S 5.7 S 0.0 280.1
15:50 19.2 22.5 51.4 1019.0 7.1 SW 14.5 WSW 0.0 229.0
15:55 19.0 22.1 51.5 1019.0 6.2 SW 12.0 SW 0.0 127.0
16:00 18.6 21.3 52.9 1019.0 6.5 SSW 11.3 SW 0.0 114.4
16:05 18.4 20.6 52.9 1019.0 6.7 SW 10.6 SW 0.0 104.3
16:10 18.4 20.1 54.6 1018.9 6.3 SSW 9.9 SSW 0.0 105.6
16:15 18.3 19.7 53.1 1019.0 7.8 WSW 11.3 W 0.0 96.7
16:20 18.1 19.3 50.0 1019.0 7.3 SW 11.7 SW 0.0 82.6
16:25 18.0 18.8 50.4 1019.0 5.1 WSW 7.8 WSW 0.0 75.6
16:30 17.9 18.6 50.9 1018.9 3.5 WNW 5.7 W 0.0 73.2
16:35 17.9 18.4 51.0 1018.9 4.0 WNW 7.8 W 0.0 62.1
16:40 17.8 18.2 50.9 1019.0 2.9 W 4.6 W 0.0 47.3
16:45 17.8 18.0 50.5 1019.0 2.1 W 4.6 W 0.0 39.0
16:50 17.8 17.7 51.3 1019.0 5.1 SW 11.3 SW 0.0 36.3
16:55 17.7 17.5 50.7 1018.9 5.7 SW 10.3 SW 0.0 40.2
17:00 17.6 17.3 50.2 1018.8 3.9 WSW 7.8 WNW 0.0 44.1
17:05 17.5 17.2 48.2 1018.7 3.6 WSW 7.1 SW 0.0 58.8
17:10 17.6 17.2 48.2 1018.5 0.2 WSW 2.1 SSW 0.0 86.4
17:15 17.7 17.4 48.2 1018.4 4.6 S 10.6 SE 0.0 101.9
17:20 17.7 17.5 51.3 1018.3 2.4 SW 5.7 SSW 0.0 101.1
17:25 17.6 17.4 52.2 1018.2 7.4 SSW 15.2 S 0.0 87.7
17:30 17.4 17.2 55.2 1018.2 6.1 SW 10.3 SSW 0.0 69.5
17:35 17.2 17.1 56.4 1018.2 4.2 SSW 8.1 S 0.0 66.9
17:40 17.2 16.9 57.4 1018.1 5.4 SSW 10.6 SSW 0.0 70.3
17:45 17.1 16.7 59.3 1018.0 6.2 SSW 12.7 SSW 0.0 66.6
17:50 16.9 16.4 61.7 1018.0 6.3 SSW 11.7 SSW 0.0 50.9
17:55 16.8 16.1 62.7 1018.0 7.2 S 16.6 S 0.0 36.5
18:00 16.8 16.0 63.2 1018.0 5.7 SSW 10.3 SSW 0.0 26.4
18:05 16.8 16.0 63.6 1018.0 7.5 SSW 11.7 SSE 0.0 18.2
18:10 16.7 15.9 62.8 1018.1 8.5 SSW 14.8 SSW 0.0 14.1
18:15 16.6 15.9 61.1 1018.1 6.4 SSW 11.7 SSW 0.0 13.8
18:20 16.6 15.7 61.1 1018.0 6.7 SSW 10.6 SSW 0.0 16.2
18:25 16.5 15.6 61.5 1018.0 7.0 SSW 9.5 S 0.0 13.8
18:30 16.4 15.4 60.5 1018.0 6.4 SSW 13.8 SW 0.0 9.3
18:35 16.3 15.3 60.9 1018.1 7.7 SSW 13.8 S 0.0 5.2
18:40 16.2 15.2 61.1 1018.2 7.5 SW 13.4 SSW 0.0 3.1
18:45 16.0 15.1 63.0 1018.2 4.3 WSW 8.5 WSW 0.0 2.1
18:50 15.8 15.0 63.4 1018.2 3.2 SW 6.4 SW 0.0 1.0
18:55 15.8 14.9 63.8 1018.4 3.7 SW 7.8 SW 0.0 0.6
Màxima 19.5 28.5 92.0 1023.6 9.6 NNW 16.6 S 0.0 998.0
Mínima 10.3 9.7 48.2 1018.0
Total 0.0